Time;durP1;ratioP1;P1;durP2;ratioP2;P2;SDS_P1;SDS_P2;PMS_P1;PMS_P2;Temp;Humidity;BMP_temperature;BMP_pressure;BME280_temperature;BME280_humidity;BME280_pressure;Samples;Min_cycle;Max_cycle;Signal;HPM_P1;HPM_P2
2021/12/19 00:00:53;;;;;;;4.55;4.18;;;;;;;1.90;64.03;95503.22;5074828;28;20181;-64
2021/12/19 00:03:36;;;;;;;4.30;4.00;;;;;;;1.84;64.82;95495.41;5075215;28;20192;-64
2021/12/19 00:08:49;;;;;;;4.40;4.10;;;;;;;1.76;65.54;95496.03;5074950;28;20193;-64
2021/12/19 00:11:17;;;;;;;4.10;3.85;;;;;;;1.73;65.23;95500.13;5074953;28;20178;-64
2021/12/19 00:13:44;;;;;;;4.75;4.40;;;;;;;1.73;65.66;95496.59;5076930;28;20192;-64
2021/12/19 00:16:12;;;;;;;5.20;4.80;;;;;;;1.71;65.39;95494.19;5094969;28;20522;-64
2021/12/19 00:18:39;;;;;;;5.13;4.72;;;;;;;1.69;64.67;95491.72;5095006;28;20215;-64
2021/12/19 00:21:06;;;;;;;5.03;4.63;;;;;;;1.68;64.76;95500.19;5078844;28;20205;-64
2021/12/19 00:23:33;;;;;;;5.22;4.82;;;;;;;1.64;65.07;95490.97;5078228;28;20211;-64
2021/12/19 00:26:01;;;;;;;5.47;4.97;;;;;;;1.61;65.23;95486.91;5078833;28;20181;-64
2021/12/19 00:28:28;;;;;;;5.30;4.90;;;;;;;1.59;64.88;95491.00;5078841;28;20200;-64
2021/12/19 00:30:54;;;;;;;5.05;4.75;;;;;;;1.57;65.56;95483.16;5078435;28;20189;-64
2021/12/19 00:33:21;;;;;;;5.72;5.22;;;;;;;1.57;65.52;95477.72;5078528;28;20215;-64
2021/12/19 00:35:48;;;;;;;5.45;5.05;;;;;;;1.55;65.67;95479.91;5095062;28;20609;-64
2021/12/19 00:38:15;;;;;;;6.00;5.50;;;;;;;1.55;65.89;95473.66;5077904;28;20204;-64
2021/12/19 00:40:42;;;;;;;4.95;4.60;;;;;;;1.53;65.65;95482.09;5094550;28;20197;-64
2021/12/19 00:43:22;;;;;;;5.50;5.10;;;;;;;1.51;65.71;95483.47;5077493;28;20209;-64
2021/12/19 00:45:49;;;;;;;5.57;5.18;;;;;;;1.52;65.07;95483.19;5094624;28;20192;-64
2021/12/19 00:48:17;;;;;;;5.45;5.03;;;;;;;1.49;66.05;95482.94;5078612;28;20272;-64
2021/12/19 00:50:44;;;;;;;4.53;4.22;;;;;;;1.44;65.14;95486.53;5077427;28;20193;-64
2021/12/19 00:53:11;;;;;;;5.00;4.60;;;;;;;1.45;66.29;95490.84;5078006;28;20516;-65
2021/12/19 00:55:38;;;;;;;4.97;4.57;;;;;;;1.44;65.89;95471.03;5078035;28;20235;-65
2021/12/19 00:58:05;;;;;;;5.28;4.88;;;;;;;1.44;66.11;95468.31;5078443;28;20189;-65
2021/12/19 01:00:36;;;;;;;4.75;4.45;;;;;;;1.44;66.53;95467.50;5077372;28;20211;-65
2021/12/19 01:03:03;;;;;;;5.07;4.68;;;;;;;1.40;65.72;95461.81;5077002;28;20220;-65
2021/12/19 01:05:32;;;;;;;4.90;4.60;;;;;;;1.43;65.99;95468.59;5078281;28;20204;-65
2021/12/19 01:07:59;;;;;;;5.35;4.95;;;;;;;1.40;65.77;95456.38;5078029;28;20195;-65
2021/12/19 01:10:25;;;;;;;5.72;5.32;;;;;;;1.36;66.00;95463.47;5077081;28;20209;-65
2021/12/19 01:12:52;;;;;;;5.75;5.35;;;;;;;1.38;65.83;95464.03;5077920;28;20189;-65
2021/12/19 01:15:20;;;;;;;5.63;5.13;;;;;;;1.39;66.77;95453.97;5077965;28;20208;-65
2021/12/19 01:17:49;;;;;;;5.95;5.55;;;;;;;1.39;65.89;95457.47;5077520;28;20181;-65
2021/12/19 01:20:23;;;;;;;5.43;5.03;;;;;;;1.40;66.19;95450.94;5077860;28;20192;-65
2021/12/19 01:22:52;;;;;;;6.30;5.80;;;;;;;1.41;65.71;95451.75;5077440;28;20201;-65
2021/12/19 01:25:19;;;;;;;5.85;5.45;;;;;;;1.40;65.75;95450.13;5076568;28;20211;-65
2021/12/19 01:27:46;;;;;;;5.70;5.22;;;;;;;1.44;66.27;95440.31;5077706;28;20609;-65
2021/12/19 01:30:13;;;;;;;5.82;5.43;;;;;;;1.46;66.43;95435.41;5077317;28;20192;-65
2021/12/19 01:32:42;;;;;;;5.50;5.10;;;;;;;1.48;65.99;95426.97;5076669;28;20193;-65
2021/12/19 01:35:12;;;;;;;5.57;5.18;;;;;;;1.47;66.42;95428.88;5093333;28;20208;-65
2021/12/19 01:37:39;;;;;;;5.57;5.18;;;;;;;1.46;66.14;95438.13;5077157;28;20182;-65
2021/12/19 01:40:10;;;;;;;5.55;5.15;;;;;;;1.47;66.61;95423.44;5077475;28;20200;-65
2021/12/19 01:42:39;;;;;;;5.78;5.35;;;;;;;1.49;66.44;95417.69;5077079;28;20539;-65
2021/12/19 01:45:09;;;;;;;5.72;5.30;;;;;;;1.50;67.30;95425.59;5093357;28;20200;-65
2021/12/19 01:47:36;;;;;;;5.35;4.95;;;;;;;1.52;66.19;95417.13;5077107;28;20257;-65
2021/12/19 01:50:04;;;;;;;5.75;5.40;;;;;;;1.51;66.32;95424.47;5093259;28;20203;-65
2021/12/19 01:52:32;;;;;;;6.28;5.78;;;;;;;1.51;66.25;95415.50;5093105;28;20201;-65
2021/12/19 01:54:59;;;;;;;6.45;5.95;;;;;;;1.50;65.48;95416.63;5092992;28;20209;-65
2021/12/19 01:57:26;;;;;;;6.28;5.85;;;;;;;1.50;65.61;95412.00;5076756;28;20244;-65
2021/12/19 01:59:54;;;;;;;6.15;5.72;;;;;;;1.50;65.92;95408.47;5093096;28;20204;-65
2021/12/19 02:02:21;;;;;;;6.03;5.63;;;;;;;1.50;65.31;95416.63;5093077;28;20217;-65
2021/12/19 02:04:48;;;;;;;6.22;5.80;;;;;;;1.48;66.13;95407.94;5076672;28;20185;-65
2021/12/19 02:07:16;;;;;;;5.90;5.40;;;;;;;1.48;66.32;95407.94;5076911;28;20186;-65
2021/12/19 02:09:44;;;;;;;6.30;5.80;;;;;;;1.48;66.39;95403.31;5092560;28;20201;-65
2021/12/19 02:12:11;;;;;;;6.53;6.10;;;;;;;1.48;65.94;95402.50;5076042;28;20639;-65
2021/12/19 02:14:39;;;;;;;6.40;6.00;;;;;;;1.49;66.45;95396.78;5076987;28;20181;-65
2021/12/19 02:17:06;;;;;;;6.95;6.40;;;;;;;1.48;66.20;95389.72;5076532;28;20196;-65
2021/12/19 02:19:34;;;;;;;6.53;6.03;;;;;;;1.49;66.25;95404.09;5076733;28;20212;-65
2021/12/19 02:22:02;;;;;;;6.13;5.63;;;;;;;1.48;65.97;95392.44;5076566;28;20224;-65
2021/12/19 02:24:29;;;;;;;6.25;5.85;;;;;;;1.50;66.57;95392.97;5075781;28;20200;-65
2021/12/19 02:26:55;;;;;;;7.10;6.50;;;;;;;1.50;65.68;95394.88;5092486;28;20205;-65
2021/12/19 02:29:22;;;;;;;6.28;5.88;;;;;;;1.50;66.29;95403.03;5093050;28;20205;-65
2021/12/19 02:31:49;;;;;;;6.25;5.75;;;;;;;1.51;65.61;95393.78;5076516;28;20189;-65
2021/12/19 02:34:19;;;;;;;6.65;6.20;;;;;;;1.48;66.20;95387.00;5076358;28;20207;-65
2021/12/19 02:36:56;;;;;;;7.03;6.53;;;;;;;1.49;66.73;95390.50;5075234;28;20193;-64
2021/12/19 02:50:27;;;;;;;6.50;6.00;;;;;;;1.42;66.05;95380.81;5075814;28;20170;-64
2021/12/19 02:52:54;;;;;;;6.55;6.15;;;;;;;1.40;66.42;95379.47;5075607;28;20208;-64
2021/12/19 02:55:22;;;;;;;6.20;5.80;;;;;;;1.39;67.00;95375.94;5075329;28;20205;-64
2021/12/19 02:57:50;;;;;;;6.80;6.30;;;;;;;1.37;67.14;95380.84;5075519;28;20208;-64
2021/12/19 03:00:19;;;;;;;6.63;6.13;;;;;;;1.36;66.79;95370.28;5075130;28;20200;-64
2021/12/19 03:02:46;;;;;;;5.90;5.50;;;;;;;1.34;67.19;95373.25;5075446;28;20212;-64
2021/12/19 03:05:13;;;;;;;6.03;5.63;;;;;;;1.33;67.21;95368.94;5075738;28;20197;-64
2021/12/19 03:07:42;;;;;;;6.00;5.60;;;;;;;1.31;66.45;95365.72;5075455;28;20186;-64
2021/12/19 03:10:35;;;;;;;5.65;5.25;;;;;;;1.30;67.14;95366.78;5075403;28;20230;-64
2021/12/19 03:13:15;;;;;;;5.80;5.40;;;;;;;1.31;67.13;95360.28;5091549;28;20293;-64
2021/12/19 03:18:26;;;;;;;5.75;5.35;;;;;;;1.30;66.59;95369.50;5075244;28;20193;-64
2021/12/19 03:20:53;;;;;;;5.80;5.40;;;;;;;1.32;66.77;95363.78;5074361;28;20214;-64
2021/12/19 03:23:20;;;;;;;5.80;5.38;;;;;;;1.29;66.54;95372.53;5075444;28;20284;-64
2021/12/19 03:25:47;;;;;;;6.10;5.60;;;;;;;1.26;65.97;95364.94;5075529;28;20196;-64
2021/12/19 03:28:15;;;;;;;5.63;5.22;;;;;;;1.20;65.77;95367.72;5075531;28;20181;-64
2021/12/19 03:30:44;;;;;;;5.72;5.32;;;;;;;1.22;66.71;95364.69;5074498;28;20188;-64
2021/12/19 03:33:12;;;;;;;5.57;5.18;;;;;;;1.19;65.94;95363.34;5074635;28;20241;-66
2021/12/19 03:35:40;;;;;;;5.70;5.28;;;;;;;1.14;65.83;95363.41;5074370;28;20189;-65
2021/12/19 03:38:10;;;;;;;5.38;4.97;;;;;;;1.14;66.66;95366.13;5075005;28;20609;-65
2021/12/19 03:40:40;;;;;;;5.63;5.22;;;;;;;1.12;65.74;95362.06;5075313;28;20199;-65
2021/12/19 03:43:08;;;;;;;5.30;4.90;;;;;;;1.10;65.85;95356.94;5075191;28;20304;-65
2021/12/19 03:45:37;;;;;;;6.10;5.55;;;;;;;1.09;66.27;95349.06;5091138;28;20207;-65
2021/12/19 03:48:05;;;;;;;5.90;5.50;;;;;;;1.05;66.00;95356.16;5074566;28;20200;-64
2021/12/19 03:50:33;;;;;;;5.75;5.35;;;;;;;1.04;65.74;95344.47;5075158;28;20196;-65
2021/12/19 03:53:00;;;;;;;5.50;5.10;;;;;;;1.02;65.89;95346.69;5075171;28;20211;-65
2021/12/19 03:55:28;;;;;;;5.65;5.18;;;;;;;1.03;66.34;95345.59;5074768;28;20207;-64
2021/12/19 03:57:57;;;;;;;5.45;5.05;;;;;;;1.04;65.76;95347.19;5074818;28;20192;-65
2021/12/19 04:00:26;;;;;;;5.40;5.00;;;;;;;1.05;66.09;95337.94;5090994;28;20221;-65
2021/12/19 04:02:56;;;;;;;5.20;4.80;;;;;;;0.99;65.00;95332.88;5074894;28;20305;-65
2021/12/19 04:05:22;;;;;;;5.80;5.40;;;;;;;0.99;65.56;95330.16;5075100;28;20189;-65
2021/12/19 04:07:51;;;;;;;5.55;5.15;;;;;;;0.98;65.20;95334.78;5074140;28;20192;-65
2021/12/19 04:10:21;;;;;;;4.93;4.63;;;;;;;0.98;65.58;95333.94;5074956;28;20185;-65
2021/12/19 04:12:48;;;;;;;5.10;4.70;;;;;;;0.97;64.97;95327.72;5074647;28;20181;-65
2021/12/19 04:15:15;;;;;;;5.15;4.80;;;;;;;0.98;65.16;95336.66;5074048;28;20212;-65
2021/12/19 04:17:42;;;;;;;5.15;4.75;;;;;;;0.95;64.85;95316.34;5091365;28;20205;-65
2021/12/19 04:20:11;;;;;;;5.93;5.43;;;;;;;0.95;65.41;95322.56;5074840;28;20185;-65
2021/12/19 04:22:38;;;;;;;5.50;5.10;;;;;;;0.98;64.95;95323.09;5074823;28;20220;-65
2021/12/19 04:25:05;;;;;;;5.60;5.20;;;;;;;0.95;64.66;95309.00;5073902;28;20207;-65
2021/12/19 04:27:33;;;;;;;5.60;5.20;;;;;;;0.96;65.34;95307.88;5074591;28;20191;-66
2021/12/19 04:30:00;;;;;;;5.30;4.90;;;;;;;0.97;65.36;95311.41;5074111;28;20189;-66
2021/12/19 04:32:36;;;;;;;5.60;5.20;;;;;;;0.99;65.51;95316.56;5074477;28;20188;-65
2021/12/19 04:35:04;;;;;;;5.65;5.22;;;;;;;0.96;64.32;95307.09;5074745;28;20185;-65
2021/12/19 04:37:59;;;;;;;5.38;4.97;;;;;;;0.95;64.57;95311.72;5074411;28;20197;-65
2021/12/19 04:40:29;;;;;;;5.28;4.90;;;;;;;0.96;65.02;95307.88;5074311;28;20201;-65
2021/12/19 04:51:39;;;;;;;5.28;4.88;;;;;;;0.96;64.93;95298.94;5074086;28;20205;-65
2021/12/19 04:54:22;;;;;;;6.28;5.78;;;;;;;0.96;64.68;95291.59;5074700;28;20197;-63
2021/12/19 04:57:02;;;;;;;5.72;5.32;;;;;;;1.00;64.49;95283.69;5073682;28;20243;-63
2021/12/19 04:59:51;;;;;;;5.95;5.45;;;;;;;0.99;65.24;95292.94;5074558;28;20181;-63
2021/12/19 05:02:36;;;;;;;6.18;5.57;;;;;;;1.03;64.90;95274.16;5078188;28;20204;-64
2021/12/19 05:16:13;;;;;;;5.60;5.20;;;;;;;1.07;64.54;95294.22;5077221;28;20629;-63
2021/12/19 05:18:42;;;;;;;5.75;5.32;;;;;;;1.06;64.88;95289.88;5077816;28;20208;-63
2021/12/19 05:21:15;;;;;;;5.55;5.10;;;;;;;1.08;64.17;95298.53;5077854;28;20193;-63
2021/12/19 05:24:04;;;;;;;5.50;5.00;;;;;;;1.07;63.65;95305.06;5076743;28;20227;-70
2021/12/19 05:26:32;;;;;;;5.63;5.22;;;;;;;1.04;64.50;95303.75;5077479;28;20621;-64
2021/12/19 05:28:59;;;;;;;6.03;5.53;;;;;;;1.09;64.24;95297.44;5077257;28;20196;-64
2021/12/19 05:31:25;;;;;;;5.45;5.05;;;;;;;1.11;64.20;95300.69;5077352;28;20196;-64
2021/12/19 05:33:52;;;;;;;5.30;5.00;;;;;;;1.12;64.21;95289.53;5077683;28;20193;-63
2021/12/19 05:47:19;;;;;;;6.28;5.78;;;;;;;1.18;64.29;95279.41;5077337;28;20201;-63
2021/12/19 05:49:45;;;;;;;6.00;5.50;;;;;;;1.21;64.16;95278.84;5076999;28;20248;-63
2021/12/19 05:52:12;;;;;;;5.72;5.22;;;;;;;1.20;64.18;95275.31;5093199;28;20197;-63
2021/12/19 05:54:39;;;;;;;6.30;5.70;;;;;;;1.20;64.36;95293.53;5077372;28;20197;-63
2021/12/19 05:57:09;;;;;;;5.60;5.20;;;;;;;1.17;64.46;95273.19;5076807;28;20652;-63
2021/12/19 05:59:36;;;;;;;6.15;5.65;;;;;;;1.16;64.16;95281.59;5075892;28;20625;-65
2021/12/19 06:02:03;;;;;;;6.38;5.88;;;;;;;1.17;64.35;95275.91;5077166;28;20189;-63
2021/12/19 06:04:30;;;;;;;6.10;5.60;;;;;;;1.18;64.03;95276.72;5076967;28;20232;-63
2021/12/19 06:06:56;;;;;;;6.07;5.57;;;;;;;1.16;64.45;95281.59;5076877;28;20570;-64
2021/12/19 06:09:23;;;;;;;6.20;5.70;;;;;;;1.17;64.23;95278.63;5076992;28;20196;-63
2021/12/19 06:11:50;;;;;;;6.10;5.60;;;;;;;1.21;64.41;95281.56;5093109;28;20193;-63
2021/12/19 06:14:18;;;;;;;6.68;6.07;;;;;;;1.22;64.41;95272.31;5076771;28;20195;-63
2021/12/19 06:16:45;;;;;;;6.50;6.00;;;;;;;1.20;63.94;95266.38;5075496;28;20605;-63
2021/12/19 06:19:12;;;;;;;6.72;6.18;;;;;;;1.23;63.86;95271.22;5076509;28;20200;-64
2021/12/19 06:21:38;;;;;;;6.25;5.85;;;;;;;1.22;63.76;95261.44;5092323;28;20237;-64
2021/12/19 06:24:06;;;;;;;6.60;6.10;;;;;;;1.24;63.87;95250.31;5076591;28;20208;-64
2021/12/19 06:26:35;;;;;;;6.50;5.90;;;;;;;1.27;63.69;95246.97;5075757;28;20213;-64
2021/12/19 06:29:02;;;;;;;6.53;5.97;;;;;;;1.29;63.36;95250.22;5092564;28;20197;-64
2021/12/19 06:31:31;;;;;;;6.80;6.20;;;;;;;1.30;63.61;95240.97;5092681;28;20189;-64
2021/12/19 06:33:57;;;;;;;6.35;5.85;;;;;;;1.30;63.34;95235.53;5075485;28;20198;-64
2021/12/19 06:36:24;;;;;;;6.50;6.00;;;;;;;1.31;63.42;95239.91;5076344;28;20197;-64
2021/12/19 06:38:52;;;;;;;6.55;6.00;;;;;;;1.30;63.35;95240.97;5076472;28;20189;-64
2021/12/19 06:41:19;;;;;;;6.93;6.43;;;;;;;1.32;62.90;95236.88;5076757;28;20207;-63
2021/12/19 06:43:46;;;;;;;7.20;6.60;;;;;;;1.31;62.55;95250.75;5076399;28;20209;-63
2021/12/19 06:46:13;;;;;;;6.88;6.35;;;;;;;1.31;63.12;95245.34;5076297;28;20199;-63
2021/12/19 06:48:41;;;;;;;7.65;7.05;;;;;;;1.29;62.70;95242.06;5075820;28;20177;-63
2021/12/19 06:51:08;;;;;;;7.88;7.28;;;;;;;1.33;63.28;95237.69;5092134;28;20529;-63
2021/12/19 06:53:35;;;;;;;7.60;7.00;;;;;;;1.37;63.57;95234.09;5076313;28;20219;-63
2021/12/19 06:56:02;;;;;;;7.05;6.50;;;;;;;1.41;63.03;95237.03;5075284;28;20231;-63
2021/12/19 06:58:28;;;;;;;7.05;6.45;;;;;;;1.44;62.79;95234.53;5075261;28;20208;-64
2021/12/19 07:00:55;;;;;;;7.38;6.78;;;;;;;1.51;63.00;95244.25;5076344;28;20204;-63
2021/12/19 07:03:23;;;;;;;8.43;7.72;;;;;;;1.55;63.05;95237.13;5076088;28;20208;-63
2021/12/19 07:05:52;;;;;;;7.55;6.95;;;;;;;1.65;63.14;95242.44;5075037;28;20193;-64
2021/12/19 07:08:21;;;;;;;7.75;7.15;;;;;;;1.72;63.13;95240.16;5075863;28;20185;-64
2021/12/19 07:10:48;;;;;;;7.38;6.78;;;;;;;1.81;62.41;95238.41;5075771;28;20308;-63
2021/12/19 07:13:19;;;;;;;7.10;6.47;;;;;;;1.89;62.65;95245.13;5092432;28;20201;-63
2021/12/19 07:15:46;;;;;;;7.53;6.93;;;;;;;2.11;62.17;95242.63;5075599;28;20197;-63
2021/12/19 07:18:13;;;;;;;7.97;7.30;;;;;;;2.12;61.48;95240.69;5091765;28;20201;-63
2021/12/19 07:20:42;;;;;;;7.30;6.70;;;;;;;2.03;60.75;95237.81;5075196;28;20185;-63
2021/12/19 07:23:12;;;;;;;7.47;6.80;;;;;;;1.99;60.84;95235.97;5090776;28;20235;-63
2021/12/19 07:25:38;;;;;;;7.47;6.88;;;;;;;1.99;60.84;95230.53;5091083;28;20633;-63
2021/12/19 07:28:05;;;;;;;7.70;7.00;;;;;;;1.99;60.80;95222.38;5075535;28;20193;-63
2021/12/19 07:30:35;;;;;;;7.40;6.75;;;;;;;1.97;60.84;95230.84;5075497;28;20185;-63
2021/12/19 07:33:02;;;;;;;7.25;6.65;;;;;;;1.97;60.89;95225.41;5075385;28;20200;-63
2021/12/19 07:35:30;;;;;;;7.30;6.70;;;;;;;1.98;60.76;95231.66;5075428;28;20193;-63
2021/12/19 07:37:57;;;;;;;7.38;6.78;;;;;;;1.97;60.38;95228.13;5075049;28;20217;-63
2021/12/19 07:40:28;;;;;;;7.03;6.43;;;;;;;1.99;60.59;95225.09;5091411;28;20212;-63
2021/12/19 07:42:58;;;;;;;7.30;6.70;;;;;;;1.98;60.32;95227.03;5075176;28;20200;-63
2021/12/19 07:45:25;;;;;;;7.38;6.80;;;;;;;2.00;60.57;95213.94;5075297;28;20189;-64
2021/12/19 07:47:52;;;;;;;7.38;6.72;;;;;;;1.96;60.22;95222.97;5075406;28;20193;-64
2021/12/19 07:50:19;;;;;;;7.13;6.43;;;;;;;1.98;60.42;95224.28;5075200;28;20196;-66
2021/12/19 07:52:45;;;;;;;6.28;5.78;;;;;;;2.02;60.00;95216.34;5073960;28;20193;-72
2021/12/19 07:55:12;;;;;;;6.65;5.65;;;;;;;2.01;60.30;95221.00;5074724;28;20193;-64
2021/12/19 07:57:41;;;;;;;7.32;5.97;;;;;;;2.05;60.01;95210.34;5091798;28;20196;-64
2021/12/19 08:00:11;;;;;;;6.57;5.97;;;;;;;2.08;60.18;95213.28;5075761;28;20189;-65
2021/12/19 08:02:37;;;;;;;7.15;6.20;;;;;;;2.08;59.98;95216.00;5091597;28;20205;-68
2021/12/19 08:05:05;;;;;;;7.03;6.32;;;;;;;2.08;59.73;95204.31;5074143;28;20212;-63
2021/12/19 08:07:32;;;;;;;7.10;6.40;;;;;;;2.08;59.97;95199.66;5074222;28;20528;-64
2021/12/19 08:10:11;;;;;;;7.68;6.97;;;;;;;2.11;59.91;95192.84;5073911;28;20203;-63
2021/12/19 08:12:39;;;;;;;8.32;7.55;;;;;;;2.13;60.17;95190.59;5090989;28;20283;-64
2021/12/19 08:15:07;;;;;;;7.93;6.55;;;;;;;2.17;60.07;95186.19;5074993;28;20196;-63
2021/12/19 08:17:34;;;;;;;7.50;6.80;;;;;;;2.15;59.89;95170.16;5074980;28;20185;-64
2021/12/19 08:20:02;;;;;;;8.02;7.18;;;;;;;2.28;60.35;95167.78;5075021;28;20192;-68
2021/12/19 08:22:30;;;;;;;7.57;6.88;;;;;;;2.28;59.52;95163.13;5074808;28;20284;-65
2021/12/19 08:24:57;;;;;;;8.15;7.45;;;;;;;2.28;59.93;95163.13;5090506;28;20213;-66
2021/12/19 08:27:24;;;;;;;7.30;6.70;;;;;;;2.31;59.46;95154.38;5090942;28;20239;-63
2021/12/19 08:29:54;;;;;;;7.10;6.60;;;;;;;2.29;59.65;95151.16;5074516;28;20186;-63
2021/12/19 08:32:21;;;;;;;7.20;6.57;;;;;;;2.44;60.30;95150.09;5073964;28;20221;-62
2021/12/19 08:34:48;;;;;;;7.63;6.93;;;;;;;2.58;59.11;95147.41;5092702;28;20201;-66
2021/12/19 08:37:15;;;;;;;7.28;6.68;;;;;;;2.70;59.00;95150.44;5078737;28;20190;-66
2021/12/19 08:39:42;;;;;;;7.05;6.45;;;;;;;2.84;58.95;95145.00;5095237;28;20295;-66
2021/12/19 08:42:10;;;;;;;6.93;6.35;;;;;;;2.92;58.17;95151.66;5077652;28;20197;-67
2021/12/19 08:44:37;;;;;;;7.30;6.75;;;;;;;3.00;57.83;95150.94;5078536;28;20232;-64
2021/12/19 08:47:06;;;;;;;7.35;6.85;;;;;;;3.03;57.96;95151.16;5078479;28;20271;-65
2021/12/19 08:49:34;;;;;;;7.90;7.30;;;;;;;3.08;57.76;95155.69;5094134;28;20204;-66
2021/12/19 08:52:01;;;;;;;8.65;7.93;;;;;;;3.05;57.58;95148.09;5077556;28;20606;-68
2021/12/19 08:54:28;;;;;;;7.88;7.28;;;;;;;2.94;57.23;95157.59;5078485;28;20514;-63
2021/12/19 08:56:55;;;;;;;7.80;7.13;;;;;;;2.86;57.65;95154.47;5093927;28;20229;-63
2021/12/19 08:59:22;;;;;;;8.55;7.72;;;;;;;2.77;58.11;95152.75;5077582;28;20208;-62
2021/12/19 09:01:48;;;;;;;8.95;8.15;;;;;;;2.72;58.24;95150.13;5077639;28;20200;-63
2021/12/19 09:04:17;;;;;;;9.02;8.23;;;;;;;2.68;58.31;95152.63;5076914;28;20212;-62
2021/12/19 09:06:44;;;;;;;7.80;7.20;;;;;;;2.66;58.38;95154.88;5094174;28;20189;-62
2021/12/19 09:09:11;;;;;;;7.43;6.93;;;;;;;2.64;58.36;95151.63;5078123;28;20186;-64
2021/12/19 09:11:38;;;;;;;7.32;6.72;;;;;;;2.61;58.52;95141.31;5077241;28;20636;-62
2021/12/19 09:14:05;;;;;;;6.72;6.20;;;;;;;2.60;58.67;95137.00;5077128;28;20185;-63
2021/12/19 09:16:32;;;;;;;6.82;6.32;;;;;;;2.62;58.75;95135.59;5077675;28;20620;-63
2021/12/19 09:18:58;;;;;;;7.35;6.75;;;;;;;2.65;58.76;95131.44;5076617;28;20199;-63
2021/12/19 09:21:26;;;;;;;7.05;6.45;;;;;;;2.63;58.54;95128.22;5077136;28;20201;-63
2021/12/19 09:23:53;;;;;;;7.60;7.00;;;;;;;2.62;59.21;95127.44;5077723;28;20224;-63
2021/12/19 09:26:20;;;;;;;7.38;6.78;;;;;;;2.63;59.16;95125.50;5093425;28;20196;-63
2021/12/19 09:28:47;;;;;;;7.15;6.65;;;;;;;2.61;59.05;95117.66;5076879;28;20207;-63
2021/12/19 09:31:14;;;;;;;7.47;6.88;;;;;;;2.61;58.99;95119.53;5093813;28;20201;-63
2021/12/19 09:33:41;;;;;;;7.57;6.97;;;;;;;2.63;59.41;95109.97;5077687;28;20255;-63
2021/12/19 09:36:08;;;;;;;8.32;7.53;;;;;;;2.65;59.36;95096.88;5093797;28;20212;-63
2021/12/19 09:38:36;;;;;;;7.72;7.13;;;;;;;2.67;58.94;95106.66;5077398;28;20189;-64
2021/12/19 09:41:13;;;;;;;7.72;7.00;;;;;;;2.66;58.97;95103.13;5077238;28;20200;-63
2021/12/19 09:43:42;;;;;;;8.07;7.38;;;;;;;2.68;59.40;95098.16;5077432;28;20246;-63
2021/12/19 09:46:14;;;;;;;8.25;7.35;;;;;;;2.80;60.18;95092.22;5092969;28;20205;-63
2021/12/19 09:48:42;;;;;;;7.93;7.22;;;;;;;2.87;59.04;95089.91;5076363;28;20200;-63
2021/12/19 09:51:10;;;;;;;7.95;7.32;;;;;;;2.84;58.83;95082.34;5077400;28;20199;-63
2021/12/19 09:53:39;;;;;;;7.50;6.90;;;;;;;2.81;58.98;95077.50;5077415;28;20215;-62
2021/12/19 09:56:06;;;;;;;6.85;6.32;;;;;;;2.79;58.59;95069.63;5075947;28;20240;-63
2021/12/19 09:58:33;;;;;;;7.03;6.35;;;;;;;2.78;58.97;95065.28;5077201;28;20189;-62
2021/12/19 10:01:01;;;;;;;8.25;7.55;;;;;;;2.79;59.19;95060.63;5076282;28;20203;-63
2021/12/19 10:03:27;;;;;;;7.93;7.22;;;;;;;2.80;58.86;95043.19;5076115;28;20618;-62
2021/12/19 10:06:15;;;;;;;8.15;7.38;;;;;;;2.79;59.01;95042.38;5076739;28;20511;-63
2021/12/19 10:08:44;;;;;;;7.88;7.20;;;;;;;2.82;59.29;95039.03;5076960;28;20185;-62
2021/12/19 10:11:31;;;;;;;8.55;7.85;;;;;;;2.84;59.47;95031.38;5077018;28;20181;-63
2021/12/19 10:13:57;;;;;;;8.80;8.07;;;;;;;2.85;59.54;95026.75;5076328;28;20208;-62
2021/12/19 10:16:27;;;;;;;8.10;7.50;;;;;;;2.88;59.59;95020.69;5076929;28;20177;-63
2021/12/19 10:18:55;;;;;;;8.35;7.70;;;;;;;2.87;59.94;95019.09;5075517;28;20198;-62
2021/12/19 10:21:23;;;;;;;8.35;7.65;;;;;;;2.95;60.48;95023.00;5076441;28;20182;-63
2021/12/19 10:23:51;;;;;;;8.35;7.30;;;;;;;3.08;59.95;95014.78;5076655;28;20185;-63
2021/12/19 10:26:18;;;;;;;8.50;7.70;;;;;;;3.09;60.02;95012.88;5076645;28;20197;-63
2021/12/19 10:28:52;;;;;;;12.80;11.63;;;;;;;3.02;60.10;95002.41;5075666;28;20197;-63
2021/12/19 10:31:19;;;;;;;10.60;9.70;;;;;;;2.95;60.07;95012.91;5076052;28;20199;-63
2021/12/19 10:33:47;;;;;;;8.20;7.47;;;;;;;2.93;59.70;95006.94;5076655;28;20197;-63
2021/12/19 10:36:15;;;;;;;8.93;8.13;;;;;;;2.92;59.96;94999.88;5076327;28;20186;-62
2021/12/19 10:38:43;;;;;;;9.27;8.38;;;;;;;2.94;59.93;94997.69;5076376;28;20193;-63
2021/12/19 10:41:15;;;;;;;9.70;8.80;;;;;;;2.95;60.09;94991.09;5076630;28;20189;-63
2021/12/19 10:43:46;;;;;;;9.10;8.40;;;;;;;2.92;59.74;94988.19;5076632;28;20185;-63
2021/12/19 10:46:13;;;;;;;8.40;7.80;;;;;;;2.93;59.44;94989.78;5075802;28;20296;-63
2021/12/19 10:48:41;;;;;;;8.27;7.57;;;;;;;2.92;59.69;94988.19;5075584;28;20193;-63
2021/12/19 10:51:10;;;;;;;8.50;7.80;;;;;;;2.91;59.69;94987.38;5076035;28;20197;-63
2021/12/19 10:53:38;;;;;;;9.02;8.20;;;;;;;2.92;59.91;94982.75;5074944;28;20542;-63
2021/12/19 10:56:10;;;;;;;9.07;8.40;;;;;;;2.92;59.83;94974.56;5074990;28;20576;-63
2021/12/19 10:58:42;;;;;;;8.82;8.02;;;;;;;2.92;59.50;94980.03;5074777;28;20532;-63
2021/12/19 11:01:18;;;;;;;8.30;7.60;;;;;;;2.91;59.51;94968.31;5074938;28;20201;-62
2021/12/19 11:03:50;;;;;;;8.57;7.85;;;;;;;2.87;59.73;94965.41;5075547;28;20189;-62
2021/12/19 11:06:20;;;;;;;9.82;8.93;;;;;;;2.85;59.96;94959.44;5091767;28;20216;-63
2021/12/19 11:08:47;;;;;;;8.95;8.13;;;;;;;2.87;59.90;94957.22;5092061;28;20204;-63
2021/12/19 11:11:39;;;;;;;9.90;9.00;;;;;;;2.87;59.98;94951.78;5075658;28;20211;-63
2021/12/19 11:14:07;;;;;;;9.45;8.65;;;;;;;2.88;59.99;94949.84;5075786;28;20276;-64
2021/12/19 11:16:34;;;;;;;8.98;8.20;;;;;;;2.88;59.83;94938.97;5075868;28;20189;-64
2021/12/19 11:19:01;;;;;;;9.32;8.52;;;;;;;2.92;59.98;94950.06;5075439;28;20187;-63
2021/12/19 11:21:33;;;;;;;9.02;8.32;;;;;;;2.94;59.44;94937.75;5074709;28;20204;-63
2021/12/19 11:24:00;;;;;;;8.43;7.72;;;;;;;2.95;58.97;94933.91;5075331;28;20602;-65
2021/12/19 11:26:27;;;;;;;9.98;9.07;;;;;;;2.95;59.38;94933.91;5075179;28;20212;-63
2021/12/19 11:28:55;;;;;;;9.23;8.48;;;;;;;2.94;59.08;94926.84;5075795;28;20185;-63
2021/12/19 11:31:26;;;;;;;9.32;8.52;;;;;;;2.95;59.19;94924.91;5075108;28;20189;-63
2021/12/19 11:34:05;;;;;;;9.40;8.70;;;;;;;2.96;59.22;94918.34;5075155;28;20586;-64
2021/12/19 11:36:34;;;;;;;9.52;8.73;;;;;;;2.99;59.38;94931.38;5075343;28;20196;-63
2021/12/19 11:39:03;;;;;;;8.40;7.68;;;;;;;2.98;59.24;94932.44;5075041;28;20724;-63
2021/12/19 11:41:31;;;;;;;9.50;8.75;;;;;;;2.99;59.39;94926.72;5074671;28;20601;-63
2021/12/19 11:44:01;;;;;;;9.70;8.90;;;;;;;2.99;59.31;94925.91;5075337;28;20185;-63
2021/12/19 11:46:49;;;;;;;10.50;9.60;;;;;;;2.97;59.27;94920.75;5074301;28;20290;-63
2021/12/19 11:49:21;;;;;;;9.10;8.30;;;;;;;2.98;59.25;94902.47;5074584;28;20193;-63
2021/12/19 11:51:50;;;;;;;8.90;8.15;;;;;;;3.00;58.96;94897.53;5075404;28;20182;-63
2021/12/19 11:54:18;;;;;;;9.25;8.45;;;;;;;2.98;58.79;94894.31;5075245;28;20197;-63
2021/12/19 11:57:07;;;;;;;9.45;8.65;;;;;;;2.94;59.19;94885.16;5091024;28;20561;-63
2021/12/19 11:59:34;;;;;;;9.13;8.32;;;;;;;2.97;59.28;94885.34;5074814;28;20221;-62
2021/12/19 12:02:23;;;;;;;9.40;8.60;;;;;;;2.94;58.98;94891.44;5075124;28;20185;-62
2021/12/19 12:05:22;;;;;;;9.18;8.48;;;;;;;2.87;59.35;94878.22;5074884;28;20214;-62
2021/12/19 12:08:14;;;;;;;9.23;8.43;;;;;;;2.86;59.90;94865.69;5091066;28;20208;-63
2021/12/19 12:11:10;;;;;;;8.77;8.02;;;;;;;2.83;59.72;94865.50;5081390;28;20197;-62
2021/12/19 12:13:39;;;;;;;9.18;8.48;;;;;;;2.76;60.06;94862.41;5080503;28;20193;-62
2021/12/19 12:16:39;;;;;;;9.75;8.90;;;;;;;2.75;60.39;94850.72;5080674;28;20284;-64
2021/12/19 12:19:08;;;;;;;8.85;8.15;;;;;;;2.74;60.36;94853.75;5070681;28;20205;-63
2021/12/19 12:21:41;;;;;;;9.93;9.07;;;;;;;2.75;60.68;94850.72;5081381;28;20528;-63
2021/12/19 12:24:09;;;;;;;9.45;8.65;;;;;;;2.78;60.24;94850.09;5097689;28;20254;-63
2021/12/19 12:26:40;;;;;;;9.52;8.75;;;;;;;2.79;60.49;94848.97;5096847;28;20216;-62
2021/12/19 12:29:08;;;;;;;8.88;8.07;;;;;;;2.79;60.20;94835.38;5081493;28;20264;-63
2021/12/19 12:31:35;;;;;;;9.18;8.43;;;;;;;2.84;60.31;94831.75;5081523;28;20196;-63
2021/12/19 12:34:03;;;;;;;9.98;9.07;;;;;;;2.86;60.38;94822.13;5080893;28;20201;-63
2021/12/19 12:36:31;;;;;;;10.45;9.55;;;;;;;2.86;60.18;94816.66;5081122;28;20187;-63
2021/12/19 12:38:57;;;;;;;9.00;8.30;;;;;;;2.86;60.43;94816.66;5096989;28;20211;-62